createdAt,value
2023-05-12T08:22:13.853Z,101484.25
2023-05-12T08:24:41.598Z,101487.36
2023-05-12T08:27:09.956Z,101484.21
2023-05-12T08:29:38.704Z,101487.36
2023-05-12T08:32:12.236Z,101478.33
2023-05-12T08:34:39.458Z,101471.88
2023-05-12T08:37:06.661Z,101471.92
2023-05-12T08:39:34.778Z,101465.80
2023-05-12T08:42:23.523Z,101465.55
2023-05-12T08:44:50.994Z,101470.73
2023-05-12T08:47:18.996Z,101476.25
2023-05-12T08:49:46.420Z,101472.85
2023-05-12T08:52:19.133Z,101472.20
2023-05-12T08:54:55.444Z,101466.25
2023-05-12T08:57:23.985Z,101457.94
2023-05-12T08:59:53.954Z,101457.20
2023-05-12T09:02:23.206Z,101453.77
2023-05-12T09:04:55.351Z,101452.45
2023-05-12T09:07:24.717Z,101454.85
2023-05-12T09:09:56.248Z,101453.85
2023-05-12T09:12:23.611Z,101455.23
2023-05-12T09:15:01.261Z,101460.16
2023-05-12T09:17:28.894Z,101457.05
2023-05-12T09:19:56.323Z,101456.98
2023-05-12T09:22:36.123Z,101453.72
2023-05-12T09:25:22.044Z,101449.83
2023-05-12T09:27:54.101Z,101455.77
2023-05-12T09:30:31.977Z,101448.01
2023-05-12T09:33:07.403Z,101443.43
2023-05-12T09:35:42.331Z,101444.21
2023-05-12T09:38:11.364Z,101437.84
2023-05-12T09:40:38.868Z,101434.71
2023-05-12T09:43:06.687Z,101434.54
2023-05-12T09:45:37.671Z,101429.96
2023-05-12T09:48:11.821Z,101429.20
2023-05-12T09:50:49.373Z,101431.81
2023-05-12T09:53:20.647Z,101428.52
2023-05-12T09:55:48.268Z,101424.98
2023-05-12T09:58:19.907Z,101421.00
2023-05-12T10:03:18.902Z,101412.32
2023-05-12T10:05:58.700Z,101416.54
2023-05-12T10:08:30.777Z,101417.24
2023-05-12T10:10:58.146Z,101419.42
2023-05-12T10:13:26.687Z,101422.13
2023-05-12T10:15:57.432Z,101424.14
2023-05-12T10:18:25.854Z,101424.06
2023-05-12T10:20:56.535Z,101423.42
2023-05-12T10:23:24.032Z,101417.41
2023-05-12T10:25:51.536Z,101418.61
2023-05-12T10:28:20.490Z,101417.11
2023-05-12T10:30:51.426Z,101414.77
2023-05-12T10:33:19.347Z,101412.61
2023-05-12T10:35:48.582Z,101407.95
2023-05-12T10:38:17.241Z,101411.06
2023-05-12T10:40:58.991Z,101413.29
2023-05-12T10:43:38.804Z,101408.42
2023-05-12T10:46:07.773Z,101407.23
2023-05-12T10:48:35.253Z,101403.02
2023-05-12T10:51:10.322Z,101401.80
2023-05-12T10:53:48.108Z,101399.35
2023-05-12T10:56:25.038Z,101396.64
2023-05-12T10:59:12.002Z,101396.35
2023-05-12T11:02:02.390Z,101398.04
2023-05-12T11:04:48.220Z,101397.20
2023-05-12T11:07:18.841Z,101391.23
2023-05-12T11:09:57.749Z,101392.05
2023-05-12T11:12:36.582Z,101390.74
2023-05-12T11:18:31.317Z,101383.05
2023-05-12T11:20:58.542Z,101380.70
2023-05-12T11:23:29.134Z,101376.08
2023-05-12T11:25:57.523Z,101373.28
2023-05-12T11:28:25.017Z,101368.60
2023-05-12T11:30:54.983Z,101370.70
2023-05-12T11:33:23.194Z,101370.48
2023-05-12T11:35:50.612Z,101368.27
2023-05-12T11:38:18.550Z,101371.45
2023-05-12T11:40:45.909Z,101371.55
2023-05-12T11:43:15.473Z,101372.67
2023-05-12T11:45:42.790Z,101372.29
2023-05-12T11:48:15.116Z,101372.33
2023-05-12T11:50:48.486Z,101368.45
2023-05-12T11:53:17.509Z,101362.81
2023-05-12T11:55:51.914Z,101367.47
2023-05-12T11:58:24.803Z,101368.15
2023-05-12T12:00:52.198Z,101367.33
2023-05-12T12:03:19.700Z,101369.83
2023-05-12T12:06:01.267Z,101362.90
2023-05-12T12:08:28.962Z,101356.00
2023-05-12T12:10:56.390Z,101357.85
2023-05-12T12:13:24.428Z,101356.91
2023-05-12T12:15:52.168Z,101350.73
2023-05-12T12:18:20.372Z,101349.72
2023-05-12T12:20:47.850Z,101345.48
2023-05-12T12:23:15.152Z,101348.40
2023-05-12T12:25:43.753Z,101349.12
2023-05-12T12:28:11.328Z,101348.23
2023-05-12T12:30:38.751Z,101344.08
2023-05-12T12:33:06.190Z,101343.48
2023-05-12T12:35:33.572Z,101348.00
2023-05-12T12:38:00.942Z,101344.80
2023-05-12T12:40:28.811Z,101344.98
2023-05-12T12:42:56.287Z,101345.34
2023-05-12T12:45:23.963Z,101345.11
2023-05-12T12:47:55.198Z,101344.34
2023-05-12T12:50:25.065Z,101348.17
2023-05-12T12:52:53.720Z,101339.30
2023-05-12T12:55:21.214Z,101344.73
2023-05-12T12:57:48.688Z,101335.82
2023-05-12T13:00:16.371Z,101337.84
2023-05-12T13:02:43.637Z,101337.91
2023-05-12T13:05:11.090Z,101342.31
2023-05-12T13:07:38.354Z,101344.33
2023-05-12T13:10:06.024Z,101342.42
2023-05-12T13:12:33.346Z,101340.02
2023-05-12T13:15:01.056Z,101340.81
2023-05-12T13:17:28.707Z,101337.02
2023-05-12T13:19:56.061Z,101346.52
2023-05-12T13:22:23.359Z,101344.03
2023-05-12T13:24:50.586Z,101342.86
2023-05-12T13:27:18.243Z,101338.66
2023-05-12T13:29:47.623Z,101339.17
2023-05-12T13:32:16.409Z,101335.93
2023-05-12T13:34:44.039Z,101331.59
2023-05-12T13:37:11.367Z,101332.67
2023-05-12T13:39:38.726Z,101331.79
2023-05-12T13:42:06.552Z,101329.53
2023-05-12T13:44:33.973Z,101329.93
2023-05-12T13:47:01.407Z,101324.80
2023-05-12T13:49:29.109Z,101329.27
2023-05-12T13:51:56.539Z,101326.98
2023-05-12T13:54:25.161Z,101328.41
2023-05-12T13:56:52.505Z,101330.02
2023-05-12T13:59:20.072Z,101333.39
2023-05-12T14:01:47.568Z,101333.31
2023-05-12T14:04:14.921Z,101330.95
2023-05-12T14:06:42.159Z,101326.80
2023-05-12T14:09:09.456Z,101334.39
2023-05-12T14:11:37.181Z,101332.94
2023-05-12T14:14:06.487Z,101328.36
2023-05-12T14:16:33.951Z,101333.09
2023-05-12T14:19:01.733Z,101332.17
2023-05-12T14:21:29.630Z,101330.45
2023-05-12T14:23:57.213Z,101326.92
2023-05-12T14:26:26.221Z,101324.14
2023-05-12T14:28:53.670Z,101325.61
2023-05-12T14:31:21.524Z,101322.77
2023-05-12T14:33:49.023Z,101322.12
2023-05-12T14:36:16.332Z,101320.56
2023-05-12T14:38:43.446Z,101317.11
2023-05-12T14:41:11.379Z,101314.49
2023-05-12T14:43:39.388Z,101316.04
2023-05-12T14:46:07.440Z,101322.05
2023-05-12T14:48:35.091Z,101323.69
2023-05-12T14:51:03.537Z,101328.92
2023-05-12T14:53:31.449Z,101328.16
2023-05-12T14:55:58.588Z,101332.54
2023-05-12T14:58:25.789Z,101337.27
2023-05-12T15:00:53.463Z,101335.32
2023-05-12T15:03:23.839Z,101334.90
2023-05-12T15:08:21.853Z,101327.33
2023-05-12T15:10:49.289Z,101326.71
2023-05-12T15:13:20.384Z,101326.54
2023-05-12T15:15:47.946Z,101324.40
2023-05-12T15:18:15.300Z,101327.46
2023-05-12T15:20:42.667Z,101331.25
2023-05-12T15:23:10.079Z,101328.09
2023-05-12T15:25:41.122Z,101327.10
2023-05-12T15:28:08.816Z,101325.72
2023-05-12T15:30:36.286Z,101323.15
2023-05-12T15:33:04.470Z,101327.84
2023-05-12T15:35:32.421Z,101328.61
2023-05-12T15:37:59.753Z,101328.79
2023-05-12T15:40:27.443Z,101328.59
2023-05-12T15:42:54.884Z,101324.73
2023-05-12T15:45:22.517Z,101324.45
2023-05-12T15:47:50.173Z,101327.30
2023-05-12T15:50:20.096Z,101325.26
2023-05-12T15:52:47.670Z,101328.09
2023-05-12T15:55:15.348Z,101331.39
2023-05-12T15:57:42.721Z,101334.34
2023-05-12T16:00:10.349Z,101336.39
2023-05-12T16:02:40.448Z,101334.54
2023-05-12T16:05:08.397Z,101337.71
2023-05-12T16:07:35.994Z,101335.39
2023-05-12T16:10:03.912Z,101333.37
2023-05-12T16:12:31.648Z,101328.86
2023-05-12T16:14:59.607Z,101328.73
2023-05-12T16:17:28.120Z,101335.27
2023-05-12T16:19:57.156Z,101332.05
2023-05-12T16:22:24.450Z,101338.20
2023-05-12T16:24:51.770Z,101340.65
2023-05-12T16:27:18.945Z,101339.85
2023-05-12T16:29:49.757Z,101336.38
2023-05-12T16:32:17.694Z,101337.02
2023-05-12T16:34:45.107Z,101341.86
2023-05-12T16:37:12.396Z,101343.89
2023-05-12T16:39:40.092Z,101345.74
2023-05-12T16:42:07.669Z,101345.83
2023-05-12T16:44:34.976Z,101347.09
2023-05-12T16:47:02.298Z,101347.22
2023-05-12T16:49:29.564Z,101352.35
2023-05-12T16:51:56.840Z,101350.00
2023-05-12T16:54:24.623Z,101350.94
2023-05-12T16:56:51.985Z,101355.46
2023-05-12T16:59:19.470Z,101355.98
2023-05-12T17:01:47.441Z,101355.15
2023-05-12T17:04:15.888Z,101362.33
2023-05-12T17:06:44.610Z,101362.41
2023-05-12T17:09:11.963Z,101367.67
2023-05-12T17:11:39.618Z,101373.07
2023-05-12T17:14:06.960Z,101375.09
2023-05-12T17:16:34.173Z,101381.75
2023-05-12T17:21:32.055Z,101381.64
2023-05-12T17:23:59.443Z,101387.04
2023-05-12T17:26:28.208Z,101393.27
2023-05-12T17:28:56.257Z,101398.11
2023-05-12T17:31:23.779Z,101401.03
2023-05-12T17:33:51.047Z,101399.30
2023-05-12T17:36:18.978Z,101397.99
2023-05-12T17:38:46.497Z,101400.27
2023-05-12T17:41:13.919Z,101400.55
2023-05-12T17:43:41.847Z,101397.02
2023-05-12T17:46:09.421Z,101403.12
2023-05-12T17:48:38.867Z,101402.86
2023-05-12T17:51:06.630Z,101403.83
2023-05-12T17:53:34.792Z,101401.68
2023-05-12T17:56:02.420Z,101404.05
2023-05-12T17:58:29.808Z,101409.45
2023-05-12T18:00:57.419Z,101410.50
2023-05-12T18:03:24.931Z,101416.08
2023-05-12T18:05:53.520Z,101419.95
2023-05-12T18:08:20.903Z,101420.90
2023-05-12T18:10:48.249Z,101421.10
2023-05-12T18:13:16.182Z,101424.39
2023-05-12T18:15:45.078Z,101424.30
2023-05-12T18:18:15.143Z,101426.61
2023-05-12T18:20:45.133Z,101425.90
2023-05-12T18:23:12.348Z,101427.41
2023-05-12T18:25:39.660Z,101425.92
2023-05-12T18:28:07.828Z,101426.57
2023-05-12T18:30:35.157Z,101434.42
2023-05-12T18:33:02.552Z,101433.27
2023-05-12T18:35:30.052Z,101434.48
2023-05-12T18:37:57.720Z,101436.07
2023-05-12T18:40:25.062Z,101432.61
2023-05-12T18:42:52.591Z,101433.81
2023-05-12T18:45:20.278Z,101437.61
2023-05-12T18:47:48.036Z,101438.34
2023-05-12T18:50:15.583Z,101442.77
2023-05-12T18:52:44.135Z,101442.62
2023-05-12T18:55:11.593Z,101442.27
2023-05-12T18:57:38.961Z,101439.52
2023-05-12T19:00:07.067Z,101440.45
2023-05-12T19:02:34.894Z,101442.80
2023-05-12T19:05:02.435Z,101444.70
2023-05-12T19:07:30.256Z,101443.27
2023-05-12T19:09:57.620Z,101438.96
2023-05-12T19:12:25.458Z,101436.16
2023-05-12T19:14:53.018Z,101437.10
2023-05-12T19:17:20.373Z,101437.49
2023-05-12T19:19:49.461Z,101430.67
2023-05-12T19:22:16.754Z,101428.65
2023-05-12T19:24:44.016Z,101424.93
2023-05-12T19:27:11.307Z,101420.80
2023-05-12T19:29:38.877Z,101423.08
2023-05-12T19:32:06.683Z,101422.42
2023-05-12T19:34:34.225Z,101419.79
2023-05-12T19:37:01.595Z,101420.23
2023-05-12T19:39:29.150Z,101415.80
2023-05-12T19:41:56.415Z,101413.75
2023-05-12T19:44:23.902Z,101413.45
2023-05-12T19:46:51.926Z,101409.81
2023-05-12T19:49:19.178Z,101410.81
2023-05-12T19:51:46.649Z,101408.65
2023-05-12T19:54:14.303Z,101406.61
2023-05-12T19:56:41.737Z,101413.42
2023-05-12T19:59:09.090Z,101414.17
2023-05-12T20:01:36.402Z,101414.23
2023-05-12T20:04:03.803Z,101409.41
2023-05-12T20:06:33.824Z,101414.95
2023-05-12T20:09:01.969Z,101413.42
2023-05-12T20:11:29.300Z,101416.37
2023-05-12T20:13:56.668Z,101418.20
2023-05-12T20:16:24.056Z,101422.44
2023-05-12T20:18:51.543Z,101420.06
2023-05-12T20:21:19.601Z,101417.09
2023-05-12T20:23:47.586Z,101419.23
2023-05-12T20:26:18.903Z,101419.23
2023-05-12T20:28:59.494Z,101418.71
2023-05-12T20:31:37.338Z,101424.48
2023-05-12T20:34:37.660Z,101427.91
2023-05-12T20:37:08.081Z,101427.06
2023-05-12T20:39:35.497Z,101433.83
2023-05-12T20:42:04.153Z,101437.63
2023-05-12T20:44:31.550Z,101435.30
2023-05-12T20:46:58.983Z,101437.98
2023-05-12T20:49:26.396Z,101441.48
2023-05-12T20:51:53.688Z,101443.17
2023-05-12T20:54:21.165Z,101440.14
2023-05-12T20:56:48.533Z,101438.91
2023-05-12T20:59:15.890Z,101438.53
2023-05-12T21:01:43.209Z,101442.55
2023-05-12T21:04:11.157Z,101443.35
2023-05-12T21:06:38.556Z,101443.98
2023-05-12T21:09:06.225Z,101441.41
2023-05-12T21:11:33.643Z,101441.72
2023-05-12T21:14:01.741Z,101439.55
2023-05-12T21:16:29.316Z,101433.25
2023-05-12T21:18:56.955Z,101436.80
2023-05-12T21:21:24.303Z,101439.63
2023-05-12T21:23:51.697Z,101440.96
2023-05-12T21:26:19.404Z,101441.60
2023-05-12T21:28:47.748Z,101441.15
2023-05-12T21:31:15.200Z,101442.40
2023-05-12T21:33:42.528Z,101440.85
2023-05-12T21:36:09.992Z,101440.40
2023-05-12T21:38:37.412Z,101442.77
2023-05-12T21:41:05.166Z,101443.87
2023-05-12T21:43:32.571Z,101444.98
2023-05-12T21:46:04.743Z,101446.72
2023-05-12T21:48:33.599Z,101442.70
2023-05-12T21:51:01.973Z,101441.38
2023-05-12T21:53:29.588Z,101439.64
2023-05-12T21:55:57.169Z,101446.64
2023-05-12T21:58:24.603Z,101447.83
2023-05-12T22:00:52.621Z,101445.94
2023-05-12T22:03:51.983Z,101445.87
2023-05-12T22:06:19.699Z,101444.52
2023-05-12T22:08:47.101Z,101445.08
2023-05-12T22:11:14.932Z,101449.24
2023-05-12T22:13:42.427Z,101448.61
2023-05-12T22:16:09.851Z,101448.37
2023-05-12T22:18:38.144Z,101448.77
2023-05-12T22:21:05.502Z,101448.86
2023-05-12T22:23:32.901Z,101453.49
2023-05-12T22:26:00.217Z,101452.38
2023-05-12T22:28:27.459Z,101455.38
2023-05-12T22:30:54.820Z,101452.23
2023-05-12T22:33:22.192Z,101453.73
2023-05-12T22:35:49.533Z,101453.64
2023-05-12T22:38:18.119Z,101451.36
2023-05-12T22:40:52.487Z,101452.05
2023-05-12T22:43:33.055Z,101451.52
2023-05-12T22:46:21.097Z,101452.93
2023-05-12T22:48:48.400Z,101451.58
2023-05-12T22:51:16.179Z,101451.79
2023-05-12T22:53:43.461Z,101453.35
2023-05-12T22:56:10.828Z,101450.44
2023-05-12T22:58:38.147Z,101449.09
2023-05-12T23:01:06.222Z,101452.77
2023-05-12T23:03:33.829Z,101448.92
2023-05-12T23:06:01.326Z,101445.77
2023-05-12T23:08:28.926Z,101447.01
2023-05-12T23:10:56.322Z,101446.92
2023-05-12T23:13:23.553Z,101449.58
2023-05-12T23:15:51.033Z,101451.59
2023-05-12T23:18:19.652Z,101449.52
2023-05-12T23:20:47.096Z,101449.12
2023-05-12T23:23:14.387Z,101450.92
2023-05-12T23:25:43.085Z,101452.71
2023-05-12T23:28:11.926Z,101453.88
2023-05-12T23:30:39.343Z,101454.08
2023-05-12T23:33:06.768Z,101455.63
2023-05-12T23:35:34.188Z,101452.87
2023-05-12T23:38:01.860Z,101453.17
2023-05-12T23:40:30.180Z,101457.09
2023-05-12T23:42:57.468Z,101456.67
2023-05-12T23:45:24.762Z,101456.58
2023-05-12T23:47:52.118Z,101454.21
2023-05-12T23:50:20.032Z,101457.41
2023-05-12T23:52:47.806Z,101457.33
2023-05-12T23:55:15.278Z,101458.00
2023-05-12T23:57:42.675Z,101460.98
